Time;durP1;ratioP1;P1;durP2;ratioP2;P2;SDS_P1;SDS_P2;PMS_P1;PMS_P2;Temp;Humidity;BMP_temperature;BMP_pressure;BME280_temperature;BME280_humidity;BME280_pressure;Samples;Min_cycle;Max_cycle;Signal;HPM_P1;HPM_P2
2023/03/06 00:00:51;;;;;;;65.45;32.03;;;2.00;99.90;;;;;;5065919;28;20044;-75
2023/03/06 00:03:19;;;;;;;62.60;32.95;;;2.00;99.90;;;;;;5065152;28;20083;-75
2023/03/06 00:05:45;;;;;;;68.93;33.53;;;2.10;99.90;;;;;;5048957;28;20095;-75
2023/03/06 00:08:12;;;;;;;68.53;32.53;;;2.10;99.90;;;;;;5062318;28;20043;-75
2023/03/06 00:10:39;;;;;;;64.10;33.70;;;2.10;99.90;;;;;;5044511;28;20123;-75
2023/03/06 00:13:10;;;;;;;67.60;32.05;;;2.00;99.90;;;;;;5069153;28;20052;-75
2023/03/06 00:15:36;;;;;;;68.07;34.10;;;2.00;99.90;;;;;;5063479;28;20511;-74
2023/03/06 00:18:04;;;;;;;65.82;32.80;;;2.10;99.90;;;;;;5067140;28;20135;-74
2023/03/06 00:20:31;;;;;;;67.35;34.60;;;2.10;99.90;;;;;;5034915;28;20048;-75
2023/03/06 00:22:58;;;;;;;64.60;32.30;;;2.00;99.90;;;;;;5045907;28;20505;-75
2023/03/06 00:25:26;;;;;;;61.75;30.70;;;1.90;99.90;;;;;;5051430;28;20269;-75
2023/03/06 00:27:52;;;;;;;70.15;34.67;;;1.90;99.90;;;;;;5044857;28;20400;-76
2023/03/06 00:30:22;;;;;;;64.32;32.95;;;1.90;99.90;;;;;;5049754;28;20056;-75
2023/03/06 00:32:50;;;;;;;70.20;32.78;;;1.90;99.90;;;;;;5044003;28;20163;-77
2023/03/06 00:35:17;;;;;;;56.22;29.92;;;1.90;99.90;;;;;;5033557;28;20193;-75
2023/03/06 00:37:44;;;;;;;61.78;32.15;;;1.90;99.90;;;;;;5043858;28;20067;-75
2023/03/06 00:40:16;;;;;;;68.07;32.55;;;1.90;99.90;;;;;;5052670;28;20040;-75
2023/03/06 00:42:43;;;;;;;61.53;31.83;;;1.90;99.90;;;;;;5032039;28;20051;-74
2023/03/06 00:45:11;;;;;;;61.28;32.95;;;1.90;99.90;;;;;;5049516;28;20036;-75
2023/03/06 00:47:38;;;;;;;64.70;32.80;;;2.00;99.90;;;;;;5046236;28;20215;-75
2023/03/06 00:50:05;;;;;;;63.35;31.33;;;1.90;99.90;;;;;;5060494;28;20282;-75
2023/03/06 00:52:32;;;;;;;62.58;31.50;;;1.90;99.90;;;;;;5039903;28;20059;-75
2023/03/06 00:54:59;;;;;;;60.83;32.80;;;1.90;99.90;;;;;;5052178;28;20128;-75
2023/03/06 00:57:25;;;;;;;66.95;32.40;;;2.00;99.90;;;;;;5055568;28;20066;-76
2023/03/06 00:59:52;;;;;;;65.53;33.05;;;2.00;99.90;;;;;;5034121;28;20142;-75
2023/03/06 01:02:20;;;;;;;60.03;30.55;;;2.00;99.90;;;;;;5042958;28;20032;-75
2023/03/06 01:04:46;;;;;;;61.80;32.00;;;2.00;99.90;;;;;;5049233;28;20037;-75
2023/03/06 01:07:13;;;;;;;66.93;33.10;;;2.00;99.90;;;;;;5060979;28;20040;-75
2023/03/06 01:09:40;;;;;;;67.95;33.50;;;2.00;99.90;;;;;;5060425;28;20279;-74
2023/03/06 01:12:07;;;;;;;63.13;33.17;;;2.00;99.90;;;;;;5038979;28;20053;-75
2023/03/06 01:14:34;;;;;;;60.75;31.30;;;2.00;99.90;;;;;;5037288;28;20163;-75
2023/03/06 01:17:01;;;;;;;62.13;31.75;;;2.00;99.90;;;;;;5048197;28;20055;-75
2023/03/06 01:19:28;;;;;;;54.30;29.02;;;1.90;99.90;;;;;;5041457;28;20048;-75
2023/03/06 01:21:55;;;;;;;54.35;28.38;;;1.90;99.90;;;;;;5052859;28;20040;-75
2023/03/06 01:24:24;;;;;;;50.58;30.25;;;1.90;99.90;;;;;;5043449;28;20050;-75
2023/03/06 01:26:51;;;;;;;55.83;29.83;;;1.90;99.90;;;;;;5038610;28;20125;-75
2023/03/06 01:29:19;;;;;;;53.17;28.45;;;2.00;99.90;;;;;;5043123;28;20040;-75
2023/03/06 01:31:46;;;;;;;58.17;30.48;;;2.10;99.90;;;;;;5044960;28;20515;-74
2023/03/06 01:34:16;;;;;;;53.30;28.92;;;2.20;99.90;;;;;;5042772;28;20048;-75
2023/03/06 01:36:43;;;;;;;62.45;30.90;;;2.10;99.90;;;;;;5060286;28;20528;-75
2023/03/06 01:39:09;;;;;;;57.17;30.00;;;2.20;99.90;;;;;;5042198;28;20041;-75
2023/03/06 01:41:36;;;;;;;55.90;31.05;;;2.20;99.90;;;;;;5061826;28;20033;-73
2023/03/06 01:44:03;;;;;;;60.38;30.20;;;2.20;99.90;;;;;;5029185;28;20059;-75
2023/03/06 01:46:29;;;;;;;59.45;29.30;;;2.10;99.90;;;;;;5042047;28;20582;-75
2023/03/06 01:49:03;;;;;;;59.25;31.92;;;2.20;99.90;;;;;;5020466;28;20528;-75
2023/03/06 01:51:58;;;;;;;56.78;31.27;;;2.30;99.90;;;;;;5042059;28;20164;-75
2023/03/06 01:54:36;;;;;;;57.20;31.30;;;2.30;99.90;;;;;;5029504;28;20374;-75
2023/03/06 01:57:08;;;;;;;54.30;30.58;;;2.30;99.90;;;;;;5042166;28;20400;-75
2023/03/06 01:59:36;;;;;;;63.50;33.05;;;2.30;99.90;;;;;;5040866;28;20040;-75
2023/03/06 02:02:07;;;;;;;59.72;31.73;;;2.30;99.90;;;;;;5035417;28;20234;-75
2023/03/06 02:04:36;;;;;;;59.00;32.92;;;2.30;99.90;;;;;;5051887;28;20044;-75
2023/03/06 02:07:03;;;;;;;59.45;30.65;;;2.20;99.90;;;;;;5043287;28;20136;-75
2023/03/06 02:09:33;;;;;;;59.78;32.08;;;2.20;99.90;;;;;;5053989;28;20041;-74
2023/03/06 02:12:02;;;;;;;61.72;31.45;;;2.20;99.90;;;;;;5068253;28;20056;-75
2023/03/06 02:14:29;;;;;;;59.58;31.25;;;2.20;99.90;;;;;;5048789;28;20052;-75
2023/03/06 02:16:56;;;;;;;63.05;32.42;;;2.20;99.90;;;;;;5045467;28;20036;-75
2023/03/06 02:19:50;;;;;;;72.85;34.13;;;2.10;99.90;;;;;;5031094;28;20481;-75
2023/03/06 02:22:18;;;;;;;62.63;30.52;;;2.20;99.90;;;;;;5038564;28;20086;-74
2023/03/06 02:24:47;;;;;;;70.93;34.05;;;2.20;99.90;;;;;;5054359;28;20039;-75
2023/03/06 02:27:14;;;;;;;65.75;33.10;;;2.20;99.90;;;;;;5035456;28;20410;-75
2023/03/06 02:29:42;;;;;;;68.45;34.70;;;2.20;99.90;;;;;;5030121;28;20529;-75
2023/03/06 02:32:09;;;;;;;69.05;33.88;;;2.10;99.90;;;;;;5046953;28;20057;-74
2023/03/06 02:34:36;;;;;;;70.30;34.08;;;2.20;99.90;;;;;;5055302;28;20303;-75
2023/03/06 02:37:08;;;;;;;79.80;36.88;;;2.10;99.90;;;;;;5045954;28;20201;-75
2023/03/06 02:39:40;;;;;;;76.55;36.20;;;2.10;99.90;;;;;;5030328;28;21629;-75
2023/03/06 02:42:06;;;;;;;76.38;36.60;;;2.20;99.90;;;;;;5039438;28;20049;-75
2023/03/06 02:44:35;;;;;;;80.47;39.70;;;2.10;99.90;;;;;;5037102;28;20579;-75
2023/03/06 02:47:06;;;;;;;81.22;36.85;;;2.20;99.90;;;;;;5037325;28;20497;-75
2023/03/06 02:49:33;;;;;;;87.05;39.92;;;2.20;99.90;;;;;;5056086;28;20059;-75
2023/03/06 02:52:00;;;;;;;95.10;40.92;;;2.30;99.90;;;;;;5039943;28;20037;-75
2023/03/06 02:54:27;;;;;;;87.32;41.42;;;2.30;99.90;;;;;;5059910;28;20040;-76
2023/03/06 02:56:54;;;;;;;94.95;41.40;;;2.20;99.90;;;;;;5040177;28;20597;-75
2023/03/06 02:59:20;;;;;;;94.80;43.47;;;2.20;99.90;;;;;;5023016;28;20039;-75
2023/03/06 03:01:47;;;;;;;88.95;42.03;;;2.30;99.90;;;;;;5048566;28;20419;-76
2023/03/06 03:04:14;;;;;;;99.78;45.15;;;2.20;99.90;;;;;;5046346;28;20048;-78
2023/03/06 03:06:41;;;;;;;104.60;45.92;;;2.20;99.90;;;;;;5038916;28;20174;-76
2023/03/06 03:09:09;;;;;;;119.53;45.67;;;2.10;99.90;;;;;;5041850;28;20075;-77
2023/03/06 03:11:35;;;;;;;111.32;46.47;;;2.10;99.90;;;;;;5041239;28;20139;-77
2023/03/06 03:14:02;;;;;;;117.43;47.42;;;2.10;99.90;;;;;;5041701;28;20137;-77
2023/03/06 03:16:29;;;;;;;106.55;45.42;;;2.00;99.90;;;;;;5033698;28;20436;-78
2023/03/06 03:18:57;;;;;;;118.18;49.05;;;2.00;99.90;;;;;;5039562;28;20044;-78
2023/03/06 03:21:25;;;;;;;126.72;49.55;;;2.00;99.90;;;;;;5042282;28;20069;-77
2023/03/06 03:23:53;;;;;;;124.78;52.45;;;2.00;99.90;;;;;;5028782;28;20055;-77
2023/03/06 03:26:21;;;;;;;118.05;47.97;;;1.90;99.90;;;;;;5055471;28;20060;-78
2023/03/06 03:28:57;;;;;;;110.70;47.30;;;2.00;99.90;;;;;;5045018;28;20098;-78
2023/03/06 03:31:25;;;;;;;125.15;51.38;;;1.90;99.90;;;;;;5023974;28;20583;-78
2023/03/06 03:33:52;;;;;;;131.13;52.00;;;1.90;99.90;;;;;;5041818;28;20041;-77
2023/03/06 03:36:20;;;;;;;128.30;52.78;;;1.90;99.90;;;;;;5039295;28;20098;-78
2023/03/06 03:38:48;;;;;;;120.85;50.35;;;2.00;99.90;;;;;;5046280;28;20048;-77
2023/03/06 03:41:14;;;;;;;125.10;52.05;;;1.90;99.90;;;;;;5027952;28;20127;-80
2023/03/06 03:43:42;;;;;;;126.13;51.20;;;1.90;99.90;;;;;;5045739;28;20406;-80
2023/03/06 03:46:09;;;;;;;117.85;48.63;;;1.90;99.90;;;;;;5053015;28;20044;-81
2023/03/06 03:48:36;;;;;;;121.72;50.13;;;1.90;99.90;;;;;;5048693;28;20083;-78
2023/03/06 03:51:08;;;;;;;117.97;49.85;;;2.00;99.90;;;;;;5033791;28;20072;-81
2023/03/06 03:53:38;;;;;;;128.38;52.10;;;2.00;99.90;;;;;;5044031;28;20474;-79
2023/03/06 03:56:06;;;;;;;130.30;53.17;;;2.00;99.90;;;;;;5044955;28;20047;-79
2023/03/06 03:58:39;;;;;;;141.27;52.40;;;2.10;99.90;;;;;;5037274;28;20493;-79
2023/03/06 04:01:06;;;;;;;139.57;53.60;;;2.10;99.90;;;;;;5038634;28;20041;-79
2023/03/06 04:03:34;;;;;;;152.25;56.45;;;2.10;99.90;;;;;;5030817;28;20067;-77
2023/03/06 04:06:01;;;;;;;173.55;59.53;;;2.00;99.90;;;;;;5042651;28;20037;-79
2023/03/06 04:08:28;;;;;;;173.30;64.18;;;2.00;99.90;;;;;;5023481;28;20143;-78
2023/03/06 04:10:55;;;;;;;176.25;64.50;;;2.00;99.90;;;;;;5027858;28;20111;-79
2023/03/06 04:13:23;;;;;;;187.77;66.55;;;2.00;99.90;;;;;;5040593;28;20604;-78
2023/03/06 04:15:53;;;;;;;174.23;63.25;;;2.00;99.90;;;;;;5042196;28;20124;-79
2023/03/06 04:18:22;;;;;;;188.30;63.47;;;1.80;99.90;;;;;;5038252;28;20052;-79
2023/03/06 04:20:50;;;;;;;199.82;67.55;;;1.80;99.90;;;;;;5029569;28;20045;-77
2023/03/06 04:23:18;;;;;;;213.82;69.32;;;1.80;99.90;;;;;;5018708;28;20668;-77
2023/03/06 04:25:45;;;;;;;206.40;70.07;;;1.80;99.90;;;;;;5047388;28;20116;-79
2023/03/06 04:28:12;;;;;;;221.35;71.28;;;1.80;99.90;;;;;;5044380;28;20049;-78
2023/03/06 04:30:40;;;;;;;244.32;71.72;;;1.80;99.90;;;;;;5044411;28;20064;-78
2023/03/06 04:33:08;;;;;;;214.13;65.03;;;1.60;99.90;;;;;;5032958;28;20623;-78
2023/03/06 04:35:36;;;;;;;188.90;60.70;;;1.60;99.90;;;;;;5022808;28;20189;-77
2023/03/06 04:38:07;;;;;;;185.68;58.72;;;1.50;99.90;;;;;;5044540;28;20056;-77
2023/03/06 04:40:35;;;;;;;178.10;61.17;;;1.40;99.90;;;;;;5039467;28;20766;-79
2023/03/06 04:43:03;;;;;;;172.60;59.80;;;1.40;99.90;;;;;;5048513;28;20080;-79
2023/03/06 04:45:30;;;;;;;168.93;60.42;;;1.40;99.90;;;;;;5027702;28;20793;-77
2023/03/06 04:47:58;;;;;;;169.68;57.00;;;1.30;99.90;;;;;;5026160;28;20538;-76
2023/03/06 04:50:27;;;;;;;169.10;59.60;;;1.40;99.90;;;;;;5054135;28;20409;-78
2023/03/06 04:52:53;;;;;;;153.88;53.88;;;1.40;99.90;;;;;;5049323;28;20677;-77
2023/03/06 04:55:20;;;;;;;169.02;59.08;;;1.40;99.90;;;;;;5025481;28;20048;-78
2023/03/06 04:57:47;;;;;;;174.85;60.90;;;1.50;99.90;;;;;;5039750;28;20094;-79
2023/03/06 05:00:22;;;;;;;213.32;70.93;;;1.50;99.90;;;;;;5041673;28;20037;-78
2023/03/06 05:02:50;;;;;;;224.20;70.85;;;1.50;99.90;;;;;;5038926;28;20067;-77
2023/03/06 05:05:17;;;;;;;229.63;73.20;;;1.50;99.90;;;;;;5057956;28;20800;-78
2023/03/06 05:07:44;;;;;;;229.73;74.80;;;1.50;99.90;;;;;;5046747;28;20048;-76
2023/03/06 05:10:14;;;;;;;205.88;65.25;;;1.50;99.90;;;;;;5057999;28;20083;-77
2023/03/06 05:12:41;;;;;;;210.60;68.28;;;1.60;99.90;;;;;;5045809;28;20135;-76
2023/03/06 05:15:09;;;;;;;230.57;69.50;;;1.60;99.90;;;;;;5044188;28;20678;-77
2023/03/06 05:17:36;;;;;;;223.77;67.97;;;1.60;99.90;;;;;;5046259;28;20044;-77
2023/03/06 05:20:08;;;;;;;225.30;66.93;;;1.50;99.90;;;;;;5043231;28;20047;-77
2023/03/06 05:22:35;;;;;;;250.52;75.32;;;1.40;99.90;;;;;;5041631;28;20044;-77
2023/03/06 05:25:03;;;;;;;238.20;72.10;;;1.40;99.90;;;;;;5036499;28;20036;-77
2023/03/06 05:27:30;;;;;;;190.05;59.78;;;1.40;99.90;;;;;;5061582;28;20044;-77
2023/03/06 05:29:57;;;;;;;183.95;57.78;;;1.40;99.90;;;;;;5048363;28;20035;-78
2023/03/06 05:32:24;;;;;;;178.90;57.92;;;1.40;99.90;;;;;;5029812;28;20214;-77
2023/03/06 05:34:50;;;;;;;159.65;52.72;;;1.40;99.90;;;;;;5045157;28;20131;-76
2023/03/06 05:37:17;;;;;;;173.82;54.75;;;1.30;99.90;;;;;;5037672;28;20063;-77
2023/03/06 05:39:44;;;;;;;166.15;56.05;;;1.30;99.90;;;;;;5031206;28;20123;-76
2023/03/06 05:42:11;;;;;;;159.65;52.42;;;1.40;99.90;;;;;;5044391;28;20040;-76
2023/03/06 05:44:37;;;;;;;166.13;51.50;;;1.30;99.90;;;;;;5041414;28;20036;-76
2023/03/06 05:47:04;;;;;;;158.38;50.30;;;1.40;99.90;;;;;;5060407;28;20106;-76
2023/03/06 05:49:34;;;;;;;138.55;49.88;;;1.40;99.90;;;;;;5043870;28;20055;-77
2023/03/06 05:52:05;;;;;;;149.57;49.58;;;1.40;99.90;;;;;;5046753;28;20048;-77
2023/03/06 05:54:33;;;;;;;137.95;52.20;;;1.30;99.90;;;;;;5045876;28;20052;-77
2023/03/06 05:57:00;;;;;;;154.20;53.63;;;1.20;99.90;;;;;;5043404;28;20041;-77
2023/03/06 05:59:27;;;;;;;166.05;58.70;;;1.20;99.90;;;;;;5036571;28;20245;-77
2023/03/06 06:01:55;;;;;;;166.90;57.97;;;1.20;99.90;;;;;;5044113;28;20075;-77
2023/03/06 06:04:22;;;;;;;185.07;60.13;;;1.30;99.90;;;;;;5044208;28;20041;-77
2023/03/06 06:06:55;;;;;;;167.85;59.28;;;1.20;99.90;;;;;;5039087;28;20029;-77
2023/03/06 06:09:22;;;;;;;162.73;62.55;;;1.20;99.90;;;;;;5046279;28;20044;-77
2023/03/06 06:12:28;;;;;;;166.85;63.08;;;1.20;99.90;;;;;;5030866;28;20070;-77
2023/03/06 06:14:55;;;;;;;151.45;59.03;;;1.20;99.90;;;;;;5037129;28;20064;-77
2023/03/06 06:17:22;;;;;;;138.68;59.25;;;1.20;99.90;;;;;;5041093;28;20063;-77
2023/03/06 06:19:49;;;;;;;139.02;55.25;;;1.20;99.90;;;;;;5045628;28;20045;-77
2023/03/06 06:22:16;;;;;;;143.68;61.17;;;1.20;99.90;;;;;;5042156;28;20132;-76
2023/03/06 06:24:42;;;;;;;142.70;57.10;;;1.20;99.90;;;;;;5040055;28;20041;-76
2023/03/06 06:27:09;;;;;;;142.10;56.58;;;1.20;99.90;;;;;;5042441;28;20043;-77
2023/03/06 06:29:36;;;;;;;132.75;53.70;;;1.20;99.90;;;;;;5040388;28;20346;-77
2023/03/06 06:32:02;;;;;;;112.00;50.97;;;1.20;99.90;;;;;;5039752;28;20044;-77
2023/03/06 06:34:30;;;;;;;115.43;47.25;;;1.20;99.90;;;;;;5036225;28;20101;-77
2023/03/06 06:36:57;;;;;;;118.75;47.38;;;1.10;99.90;;;;;;5026430;28;20131;-77
2023/03/06 06:39:24;;;;;;;117.75;47.78;;;1.10;99.90;;;;;;5019953;28;20048;-77
2023/03/06 06:41:51;;;;;;;97.63;42.25;;;1.20;99.90;;;;;;5023713;28;20055;-77
2023/03/06 06:44:38;;;;;;;107.57;44.72;;;1.10;99.90;;;;;;5046906;28;20044;-77
2023/03/06 06:47:05;;;;;;;102.65;43.72;;;1.10;99.90;;;;;;5034508;28;20040;-77
2023/03/06 06:49:52;;;;;;;96.35;44.15;;;1.10;99.90;;;;;;5040694;28;20219;-76
2023/03/06 06:52:19;;;;;;;92.85;42.88;;;1.20;99.90;;;;;;5039994;28;20052;-77
2023/03/06 06:54:46;;;;;;;91.03;40.25;;;1.20;99.90;;;;;;5045830;28;20044;-77
2023/03/06 06:57:13;;;;;;;96.28;42.35;;;1.20;99.90;;;;;;5043122;28;20041;-78
2023/03/06 06:59:40;;;;;;;86.60;39.83;;;1.20;99.90;;;;;;5037259;28;20044;-77
2023/03/06 07:02:13;;;;;;;81.30;37.58;;;1.20;99.90;;;;;;5039736;28;20037;-77
2023/03/06 07:04:40;;;;;;;77.95;37.88;;;1.20;99.90;;;;;;5046579;28;20063;-77
2023/03/06 07:07:27;;;;;;;64.60;33.63;;;1.20;99.90;;;;;;5041423;28;20041;-77
2023/03/06 07:09:54;;;;;;;66.72;34.90;;;1.20;99.90;;;;;;5044472;28;20122;-77
2023/03/06 07:12:20;;;;;;;58.10;32.97;;;1.20;99.90;;;;;;5037714;28;20045;-77
2023/03/06 07:14:47;;;;;;;58.67;33.70;;;1.20;99.90;;;;;;5045885;28;20441;-79
2023/03/06 07:17:14;;;;;;;60.17;30.45;;;1.20;99.90;;;;;;5046079;28;20804;-77
2023/03/06 07:19:40;;;;;;;52.88;28.30;;;1.30;99.90;;;;;;5047780;28;20032;-78
2023/03/06 07:22:07;;;;;;;51.25;29.58;;;1.30;99.90;;;;;;5033832;28;20445;-77
2023/03/06 07:24:34;;;;;;;50.28;27.58;;;1.30;99.90;;;;;;5029421;28;20128;-76
2023/03/06 07:27:01;;;;;;;52.75;27.73;;;1.30;99.90;;;;;;5048328;28;21238;-76
2023/03/06 07:29:28;;;;;;;56.40;30.27;;;1.40;99.90;;;;;;5040982;28;20542;-77
2023/03/06 07:31:54;;;;;;;57.95;31.52;;;1.40;99.90;;;;;;5046753;28;20044;-77
2023/03/06 07:34:21;;;;;;;57.05;31.60;;;1.50;99.90;;;;;;5038506;28;20048;-77
2023/03/06 07:36:49;;;;;;;68.25;33.45;;;1.50;99.90;;;;;;5045999;28;20567;-77
2023/03/06 07:39:16;;;;;;;64.78;33.03;;;1.50;99.90;;;;;;5029175;28;20541;-77
2023/03/06 07:41:43;;;;;;;65.30;35.47;;;1.50;99.90;;;;;;5039213;28;20049;-76
2023/03/06 07:44:10;;;;;;;74.90;36.25;;;1.50;99.90;;;;;;5042799;28;20040;-77
2023/03/06 07:46:37;;;;;;;75.88;37.60;;;1.50;99.90;;;;;;5018175;28;20646;-77
2023/03/06 07:49:03;;;;;;;83.38;39.92;;;1.50;99.90;;;;;;5043649;28;20470;-77
2023/03/06 07:51:30;;;;;;;89.85;39.20;;;1.50;99.90;;;;;;5063479;28;20565;-76
2023/03/06 07:53:57;;;;;;;67.97;34.35;;;1.40;99.90;;;;;;5042518;28;20145;-77
2023/03/06 07:56:23;;;;;;;69.32;33.95;;;1.40;99.90;;;;;;5018479;28;20437;-78
2023/03/06 07:58:50;;;;;;;51.65;27.25;;;1.50;99.90;;;;;;5052122;28;20074;-76
2023/03/06 08:01:19;;;;;;;66.35;32.97;;;1.40;99.90;;;;;;5047978;28;20040;-78
2023/03/06 08:03:48;;;;;;;55.60;30.25;;;1.40;99.90;;;;;;5051617;28;20040;-77
2023/03/06 08:06:26;;;;;;;68.13;34.83;;;1.40;99.90;;;;;;5045604;28;20082;-77
2023/03/06 08:08:55;;;;;;;65.53;32.97;;;1.40;99.90;;;;;;5042213;28;20078;-78
2023/03/06 08:11:24;;;;;;;64.88;31.40;;;1.50;99.90;;;;;;5043792;28;20044;-77
2023/03/06 08:13:51;;;;;;;62.53;30.25;;;1.60;99.90;;;;;;5044109;28;20113;-77
2023/03/06 08:16:24;;;;;;;61.45;32.55;;;1.50;99.90;;;;;;5043756;28;20443;-78
2023/03/06 08:18:51;;;;;;;61.90;28.20;;;1.50;99.90;;;;;;5048287;28;20135;-78
2023/03/06 08:21:22;;;;;;;62.08;31.63;;;1.50;99.90;;;;;;5056251;28;20465;-78
2023/03/06 08:23:49;;;;;;;65.10;32.95;;;1.50;99.90;;;;;;5043276;28;20135;-77
2023/03/06 08:26:19;;;;;;;62.78;31.00;;;1.50;99.90;;;;;;5044513;28;20402;-78
2023/03/06 08:28:45;;;;;;;68.57;34.75;;;1.50;99.90;;;;;;5049405;28;20674;-78
2023/03/06 08:31:24;;;;;;;76.30;35.72;;;1.50;99.90;;;;;;5063492;28;20055;-79
2023/03/06 08:33:52;;;;;;;74.10;37.90;;;1.50;99.90;;;;;;5021130;28;20048;-76
2023/03/06 08:36:18;;;;;;;81.28;40.35;;;1.50;99.90;;;;;;5033948;28;20064;-80
2023/03/06 08:38:45;;;;;;;71.72;36.63;;;1.50;99.90;;;;;;5060812;28;20366;-77
2023/03/06 08:41:12;;;;;;;76.20;38.67;;;1.50;99.90;;;;;;5029619;28;20047;-76
2023/03/06 08:43:39;;;;;;;87.45;40.75;;;1.50;99.90;;;;;;5052982;28;20127;-76
2023/03/06 08:46:06;;;;;;;96.82;45.47;;;1.50;99.90;;;;;;5033351;28;20040;-76
2023/03/06 08:48:32;;;;;;;86.93;42.33;;;1.60;99.90;;;;;;5056353;28;20675;-77
2023/03/06 08:50:59;;;;;;;85.72;42.03;;;1.70;99.90;;;;;;5065056;28;20684;-76
2023/03/06 08:53:26;;;;;;;79.07;38.88;;;1.70;99.90;;;;;;5064906;28;20135;-76
2023/03/06 08:56:21;;;;;;;78.63;40.15;;;1.80;99.90;;;;;;5034867;28;20685;-77
2023/03/06 08:58:48;;;;;;;84.05;41.97;;;1.80;99.90;;;;;;5055598;28;20051;-77
2023/03/06 09:01:18;;;;;;;79.60;41.47;;;1.90;99.90;;;;;;5042280;28;20282;-78
2023/03/06 09:03:45;;;;;;;69.78;37.00;;;1.90;99.90;;;;;;5029556;28;20094;-77
2023/03/06 09:06:12;;;;;;;73.35;40.67;;;2.00;99.90;;;;;;5036099;28;20102;-77
2023/03/06 09:08:43;;;;;;;78.82;42.85;;;1.90;99.90;;;;;;5045774;28;20051;-79
2023/03/06 09:11:11;;;;;;;74.32;41.47;;;1.90;99.90;;;;;;5044896;28;20048;-78
2023/03/06 09:13:38;;;;;;;75.47;39.60;;;2.00;99.90;;;;;;5052358;28;20063;-77
2023/03/06 09:16:07;;;;;;;78.03;41.90;;;2.00;99.90;;;;;;5040598;28;20183;-77
2023/03/06 09:18:34;;;;;;;72.63;39.30;;;2.10;99.90;;;;;;5038745;28;20036;-77
2023/03/06 09:21:01;;;;;;;71.53;40.78;;;2.00;99.90;;;;;;5042623;28;20474;-77
2023/03/06 09:23:27;;;;;;;64.22;34.95;;;2.00;99.90;;;;;;5061659;28;20159;-76
2023/03/06 09:25:55;;;;;;;61.70;33.58;;;2.00;99.90;;;;;;5039324;28;20131;-76
2023/03/06 09:28:22;;;;;;;59.60;33.40;;;2.00;99.90;;;;;;5045996;28;20268;-76
2023/03/06 09:30:49;;;;;;;68.88;35.17;;;2.00;99.90;;;;;;5021868;28;20041;-77
2023/03/06 09:33:17;;;;;;;66.22;34.13;;;1.90;99.90;;;;;;5030451;28;20045;-78
2023/03/06 09:35:53;;;;;;;71.57;36.92;;;1.80;99.90;;;;;;5035739;28;20076;-77
2023/03/06 09:38:22;;;;;;;82.32;39.22;;;1.70;99.90;;;;;;5039543;28;20051;-79
2023/03/06 09:40:59;;;;;;;77.45;38.50;;;1.70;99.90;;;;;;5033074;28;20541;-78
2023/03/06 09:43:38;;;;;;;74.43;37.58;;;1.60;99.90;;;;;;5059058;28;20086;-78
2023/03/06 09:46:28;;;;;;;85.18;39.38;;;1.60;99.90;;;;;;5050394;28;20127;-76
2023/03/06 09:49:14;;;;;;;95.97;40.50;;;1.70;99.90;;;;;;5025066;28;20056;-76
2023/03/06 09:52:27;;;;;;;84.13;40.35;;;1.80;99.90;;;;;;5041674;28;20040;-76
2023/03/06 09:55:02;;;;;;;97.10;41.10;;;1.70;99.90;;;;;;5043095;28;20227;-79
2023/03/06 09:57:40;;;;;;;93.40;42.70;;;1.80;99.90;;;;;;5044429;28;20105;-77
2023/03/06 10:00:15;;;;;;;90.22;40.53;;;1.80;99.90;;;;;;5033288;28;20590;-78
2023/03/06 10:02:52;;;;;;;97.45;43.70;;;1.80;99.90;;;;;;5040649;28;20623;-78
2023/03/06 10:05:23;;;;;;;92.38;40.03;;;1.80;99.90;;;;;;5036445;28;20072;-77
2023/03/06 10:08:10;;;;;;;101.22;43.08;;;1.80;99.90;;;;;;5027704;28;20046;-77
2023/03/06 10:10:49;;;;;;;99.15;46.88;;;1.80;99.90;;;;;;5029426;28;20110;-75
2023/03/06 10:13:37;;;;;;;115.15;48.85;;;1.70;99.90;;;;;;5022897;28;20037;-74
2023/03/06 10:16:32;;;;;;;103.78;45.00;;;1.80;99.90;;;;;;5047110;28;20075;-76
2023/03/06 10:19:09;;;;;;;102.60;44.70;;;1.80;99.90;;;;;;5021974;28;20052;-76
2023/03/06 10:21:55;;;;;;;109.55;48.22;;;1.70;99.90;;;;;;5034597;28;20137;-78
2023/03/06 10:24:53;;;;;;;112.18;45.83;;;1.70;99.90;;;;;;5037104;28;20059;-75
2023/03/06 10:27:56;;;;;;;108.38;42.88;;;1.50;99.90;;;;;;5048547;28;20052;-76
2023/03/06 10:30:43;;;;;;;108.75;43.95;;;1.50;99.90;;;;;;5039711;28;20086;-76
2023/03/06 10:33:28;;;;;;;115.25;44.65;;;1.50;99.90;;;;;;5019119;28;20072;-76
2023/03/06 10:35:55;;;;;;;116.68;47.17;;;1.40;99.90;;;;;;5037045;28;20106;-78
2023/03/06 10:38:36;;;;;;;115.43;48.33;;;1.50;99.90;;;;;;5039076;28;20036;-79
2023/03/06 10:41:12;;;;;;;115.82;43.75;;;1.50;99.90;;;;;;5055057;28;20131;-77
2023/03/06 10:44:06;;;;;;;113.43;45.20;;;1.50;99.90;;;;;;5042010;28;20513;-76
2023/03/06 10:46:36;;;;;;;116.40;48.60;;;1.60;99.90;;;;;;5010948;28;20630;-78
2023/03/06 10:49:20;;;;;;;115.22;40.60;;;1.50;99.90;;;;;;5027716;28;20060;-78
2023/03/06 10:52:17;;;;;;;136.55;52.60;;;1.50;99.90;;;;;;5032596;28;20048;-77
2023/03/06 10:54:44;;;;;;;92.18;38.78;;;1.60;99.90;;;;;;5040935;28;20155;-76
2023/03/06 10:57:24;;;;;;;104.28;43.42;;;1.50;99.90;;;;;;5038089;28;21125;-78
2023/03/06 10:59:57;;;;;;;125.63;48.88;;;1.50;99.90;;;;;;5025570;28;20159;-78
2023/03/06 11:02:37;;;;;;;134.00;52.47;;;1.50;99.90;;;;;;5024990;28;20052;-76
2023/03/06 11:05:06;;;;;;;127.82;46.72;;;1.60;99.90;;;;;;5041644;28;20102;-76
2023/03/06 11:07:51;;;;;;;107.90;43.28;;;1.50;99.90;;;;;;5038230;28;20441;-77
2023/03/06 11:10:18;;;;;;;;;;;1.60;99.90;;;;;;5043779;28;20063;-76
2023/03/06 11:12:56;;;;;;;97.07;38.65;;;1.60;99.90;;;;;;5030551;28;19981;-77
2023/03/06 11:15:25;;;;;;;113.55;44.15;;;1.60;99.90;;;;;;5066466;28;20127;-77
2023/03/06 11:18:03;;;;;;;120.82;45.55;;;1.60;99.90;;;;;;5046054;28;20052;-76
2023/03/06 11:20:32;;;;;;;124.43;45.58;;;1.60;99.90;;;;;;5023939;28;20080;-76
2023/03/06 11:23:28;;;;;;;110.35;42.22;;;1.70;99.90;;;;;;5039296;28;20430;-76
2023/03/06 11:25:56;;;;;;;108.80;43.28;;;1.70;99.90;;;;;;5038590;28;20048;-81
2023/03/06 11:28:31;;;;;;;107.70;42.05;;;1.60;99.90;;;;;;5045540;28;20040;-77
2023/03/06 11:31:22;;;;;;;113.38;41.53;;;1.70;99.90;;;;;;5042066;28;20545;-77
2023/03/06 11:34:10;;;;;;;107.50;41.83;;;1.80;99.90;;;;;;5041186;28;20583;-79
2023/03/06 11:36:47;;;;;;;119.93;47.45;;;1.80;99.90;;;;;;5026814;28;20054;-77
2023/03/06 11:39:35;;;;;;;113.72;43.83;;;1.80;99.90;;;;;;5054096;28;20064;-79
2023/03/06 11:42:11;;;;;;;111.38;42.42;;;1.80;99.90;;;;;;5040753;28;20524;-76
2023/03/06 11:45:10;;;;;;;127.32;45.83;;;1.70;99.90;;;;;;5029999;28;20044;-76
2023/03/06 11:47:47;;;;;;;130.02;46.70;;;1.70;99.90;;;;;;5041925;28;20106;-78
2023/03/06 11:50:29;;;;;;;116.03;40.45;;;1.60;99.90;;;;;;5041414;28;20148;-79
2023/03/06 11:53:15;;;;;;;116.28;43.75;;;1.60;99.90;;;;;;5038839;28;20053;-79
2023/03/06 11:55:51;;;;;;;69.13;30.50;;;1.50;99.90;;;;;;5042463;28;20130;-76
2023/03/06 11:58:41;;;;;;;52.05;23.15;;;1.50;99.90;;;;;;5039260;28;20044;-76
2023/03/06 12:01:54;;;;;;;56.05;25.13;;;1.40;99.90;;;;;;5026059;28;20061;-77
2023/03/06 12:04:40;;;;;;;58.75;28.23;;;1.40;99.90;;;;;;4986416;28;20050;-76
2023/03/06 12:07:27;;;;;;;59.22;28.05;;;1.40;99.90;;;;;;4972005;28;20046;-78
2023/03/06 12:10:16;;;;;;;63.38;27.75;;;1.30;99.90;;;;;;5014568;28;20036;-78
2023/03/06 12:13:11;;;;;;;67.82;27.70;;;1.30;99.90;;;;;;5023859;28;20178;-80
2023/03/06 12:15:57;;;;;;;75.00;30.45;;;1.30;99.90;;;;;;5024934;28;20040;-78
2023/03/06 12:18:51;;;;;;;64.20;29.70;;;1.40;99.90;;;;;;5036646;28;20669;-78
2023/03/06 12:21:56;;;;;;;74.70;31.88;;;1.60;99.90;;;;;;5019850;28;20037;-77
2023/03/06 12:24:29;;;;;;;55.85;25.55;;;1.80;99.90;;;;;;4980578;28;20041;-76
2023/03/06 12:27:13;;;;;;;65.43;28.30;;;1.80;99.90;;;;;;5047862;28;20523;-76
2023/03/06 12:29:46;;;;;;;57.65;26.17;;;2.20;99.90;;;;;;5038611;28;20135;-78
2023/03/06 12:32:51;;;;;;;40.90;22.40;;;2.70;99.90;;;;;;5028129;28;20049;-77
2023/03/06 12:35:37;;;;;;;38.58;20.90;;;2.70;99.90;;;;;;5039602;28;20052;-76
2023/03/06 12:38:04;;;;;;;45.40;22.95;;;2.50;99.90;;;;;;5044438;28;20057;-78
2023/03/06 12:40:58;;;;;;;43.72;23.20;;;2.50;99.90;;;;;;5039192;28;20283;-76
2023/03/06 12:43:36;;;;;;;50.00;24.98;;;2.40;99.90;;;;;;5036441;28;20068;-78
2023/03/06 12:46:13;;;;;;;52.15;27.00;;;2.40;99.90;;;;;;5040975;28;20056;-77
2023/03/06 12:48:44;;;;;;;49.80;26.08;;;2.40;99.90;;;;;;5047549;28;20036;-77
2023/03/06 12:51:16;;;;;;;46.75;25.83;;;2.50;99.90;;;;;;5049032;28;20561;-80
2023/03/06 12:53:44;;;;;;;46.05;25.35;;;2.50;99.90;;;;;;5038026;28;20680;-80
2023/03/06 12:56:14;;;;;;;45.58;25.70;;;2.30;99.90;;;;;;5043439;28;20041;-79